sensor_id;sensor_type;location;lat;lon;timestamp;P1;durP1;ratioP1;P2;durP2;ratioP2
3953;SDS011;1991;48.682;9.030;2022-12-07T00:00:53;9.90;;;7.47;;
3953;SDS011;1991;48.682;9.030;2022-12-07T00:03:19;9.87;;;7.00;;
3953;SDS011;1991;48.682;9.030;2022-12-07T00:05:45;8.67;;;6.47;;
3953;SDS011;1991;48.682;9.030;2022-12-07T00:08:11;7.60;;;6.23;;
3953;SDS011;1991;48.682;9.030;2022-12-07T00:10:36;9.17;;;6.23;;
3953;SDS011;1991;48.682;9.030;2022-12-07T00:13:02;9.40;;;6.43;;
3953;SDS011;1991;48.682;9.030;2022-12-07T00:15:27;8.37;;;6.30;;
3953;SDS011;1991;48.682;9.030;2022-12-07T00:17:53;10.30;;;6.63;;
3953;SDS011;1991;48.682;9.030;2022-12-07T00:20:18;11.20;;;7.20;;
3953;SDS011;1991;48.682;9.030;2022-12-07T00:22:44;7.73;;;6.93;;
3953;SDS011;1991;48.682;9.030;2022-12-07T00:25:10;10.13;;;6.83;;
3953;SDS011;1991;48.682;9.030;2022-12-07T00:27:35;9.20;;;6.40;;
3953;SDS011;1991;48.682;9.030;2022-12-07T00:30:01;10.27;;;7.23;;
3953;SDS011;1991;48.682;9.030;2022-12-07T00:32:26;8.87;;;7.27;;
3953;SDS011;1991;48.682;9.030;2022-12-07T00:34:52;10.03;;;7.67;;
3953;SDS011;1991;48.682;9.030;2022-12-07T00:37:17;10.20;;;7.60;;
3953;SDS011;1991;48.682;9.030;2022-12-07T00:39:43;10.33;;;7.77;;
3953;SDS011;1991;48.682;9.030;2022-12-07T00:42:10;10.27;;;8.07;;
3953;SDS011;1991;48.682;9.030;2022-12-07T00:44:35;10.57;;;8.07;;
3953;SDS011;1991;48.682;9.030;2022-12-07T00:47:01;10.67;;;7.87;;
3953;SDS011;1991;48.682;9.030;2022-12-07T00:49:27;12.10;;;8.00;;
3953;SDS011;1991;48.682;9.030;2022-12-07T00:51:52;9.90;;;8.10;;
3953;SDS011;1991;48.682;9.030;2022-12-07T00:54:18;10.00;;;7.67;;
3953;SDS011;1991;48.682;9.030;2022-12-07T00:56:43;11.63;;;8.57;;
3953;SDS011;1991;48.682;9.030;2022-12-07T00:59:10;10.33;;;8.07;;
3953;SDS011;1991;48.682;9.030;2022-12-07T01:01:38;10.87;;;7.80;;
3953;SDS011;1991;48.682;9.030;2022-12-07T01:04:04;10.43;;;8.40;;
3953;SDS011;1991;48.682;9.030;2022-12-07T01:06:30;10.73;;;8.10;;
3953;SDS011;1991;48.682;9.030;2022-12-07T01:08:56;13.80;;;8.47;;
3953;SDS011;1991;48.682;9.030;2022-12-07T01:11:27;13.50;;;9.20;;
3953;SDS011;1991;48.682;9.030;2022-12-07T01:13:54;10.23;;;7.83;;
3953;SDS011;1991;48.682;9.030;2022-12-07T01:16:22;10.80;;;8.87;;
3953;SDS011;1991;48.682;9.030;2022-12-07T01:18:51;11.60;;;8.53;;
3953;SDS011;1991;48.682;9.030;2022-12-07T01:21:22;10.90;;;8.07;;
3953;SDS011;1991;48.682;9.030;2022-12-07T01:23:50;14.10;;;9.03;;
3953;SDS011;1991;48.682;9.030;2022-12-07T01:26:17;10.50;;;8.87;;
3953;SDS011;1991;48.682;9.030;2022-12-07T01:28:45;10.30;;;8.27;;
3953;SDS011;1991;48.682;9.030;2022-12-07T01:31:11;11.10;;;8.43;;
3953;SDS011;1991;48.682;9.030;2022-12-07T01:33:43;10.33;;;8.50;;
3953;SDS011;1991;48.682;9.030;2022-12-07T01:38:40;11.40;;;9.37;;
3953;SDS011;1991;48.682;9.030;2022-12-07T01:41:07;11.90;;;9.10;;
3953;SDS011;1991;48.682;9.030;2022-12-07T01:43:33;11.43;;;8.90;;
3953;SDS011;1991;48.682;9.030;2022-12-07T01:46:00;10.73;;;8.70;;
3953;SDS011;1991;48.682;9.030;2022-12-07T01:48:29;10.40;;;8.40;;
3953;SDS011;1991;48.682;9.030;2022-12-07T01:50:55;9.63;;;8.43;;
3953;SDS011;1991;48.682;9.030;2022-12-07T01:53:25;13.37;;;9.57;;
3953;SDS011;1991;48.682;9.030;2022-12-07T01:55:53;10.20;;;8.33;;
3953;SDS011;1991;48.682;9.030;2022-12-07T01:58:20;12.27;;;8.73;;
3953;SDS011;1991;48.682;9.030;2022-12-07T02:00:47;10.17;;;8.63;;
3953;SDS011;1991;48.682;9.030;2022-12-07T02:03:15;11.90;;;8.73;;
3953;SDS011;1991;48.682;9.030;2022-12-07T02:05:52;10.03;;;8.20;;
3953;SDS011;1991;48.682;9.030;2022-12-07T02:08:19;10.73;;;8.73;;
3953;SDS011;1991;48.682;9.030;2022-12-07T02:10:45;11.57;;;9.27;;
3953;SDS011;1991;48.682;9.030;2022-12-07T02:13:15;11.37;;;8.83;;
3953;SDS011;1991;48.682;9.030;2022-12-07T02:29:20;12.53;;;8.53;;
3953;SDS011;1991;48.682;9.030;2022-12-07T02:32:06;11.00;;;8.57;;
3953;SDS011;1991;48.682;9.030;2022-12-07T02:37:21;10.03;;;8.30;;
3953;SDS011;1991;48.682;9.030;2022-12-07T02:40:02;11.83;;;9.20;;
3953;SDS011;1991;48.682;9.030;2022-12-07T02:42:31;11.70;;;8.47;;
3953;SDS011;1991;48.682;9.030;2022-12-07T02:45:07;12.03;;;9.40;;
3953;SDS011;1991;48.682;9.030;2022-12-07T02:47:35;10.80;;;8.50;;
3953;SDS011;1991;48.682;9.030;2022-12-07T02:50:03;11.20;;;9.20;;
3953;SDS011;1991;48.682;9.030;2022-12-07T02:52:30;10.57;;;8.87;;
3953;SDS011;1991;48.682;9.030;2022-12-07T02:54:56;8.87;;;7.47;;
3953;SDS011;1991;48.682;9.030;2022-12-07T03:00:00;10.60;;;7.80;;
3953;SDS011;1991;48.682;9.030;2022-12-07T03:02:43;9.60;;;7.93;;
3953;SDS011;1991;48.682;9.030;2022-12-07T03:16:17;8.80;;;7.90;;
3953;SDS011;1991;48.682;9.030;2022-12-07T03:18:56;10.60;;;8.07;;
3953;SDS011;1991;48.682;9.030;2022-12-07T03:21:32;9.70;;;8.30;;
3953;SDS011;1991;48.682;9.030;2022-12-07T03:24:10;9.40;;;7.83;;
3953;SDS011;1991;48.682;9.030;2022-12-07T03:26:44;9.80;;;7.77;;
3953;SDS011;1991;48.682;9.030;2022-12-07T03:29:16;8.63;;;7.57;;
3953;SDS011;1991;48.682;9.030;2022-12-07T03:32:04;11.30;;;8.80;;
3953;SDS011;1991;48.682;9.030;2022-12-07T03:34:38;10.80;;;8.67;;
3953;SDS011;1991;48.682;9.030;2022-12-07T03:37:18;10.10;;;8.47;;
3953;SDS011;1991;48.682;9.030;2022-12-07T03:40:04;10.53;;;8.63;;
3953;SDS011;1991;48.682;9.030;2022-12-07T03:42:44;10.27;;;9.00;;
3953;SDS011;1991;48.682;9.030;2022-12-07T03:45:11;10.17;;;8.17;;
3953;SDS011;1991;48.682;9.030;2022-12-07T03:47:42;10.97;;;7.67;;
3953;SDS011;1991;48.682;9.030;2022-12-07T03:53:15;9.33;;;7.67;;
3953;SDS011;1991;48.682;9.030;2022-12-07T03:55:45;10.90;;;8.57;;
3953;SDS011;1991;48.682;9.030;2022-12-07T03:58:15;10.57;;;8.40;;
3953;SDS011;1991;48.682;9.030;2022-12-07T04:00:43;12.33;;;8.63;;
3953;SDS011;1991;48.682;9.030;2022-12-07T04:03:09;10.53;;;8.57;;
3953;SDS011;1991;48.682;9.030;2022-12-07T04:05:35;10.37;;;8.20;;
3953;SDS011;1991;48.682;9.030;2022-12-07T04:08:01;11.40;;;8.93;;
3953;SDS011;1991;48.682;9.030;2022-12-07T04:10:27;9.53;;;8.53;;
3953;SDS011;1991;48.682;9.030;2022-12-07T04:12:53;9.80;;;8.37;;
3953;SDS011;1991;48.682;9.030;2022-12-07T04:15:18;9.23;;;8.13;;
3953;SDS011;1991;48.682;9.030;2022-12-07T04:17:44;10.63;;;8.53;;
3953;SDS011;1991;48.682;9.030;2022-12-07T04:20:10;10.10;;;7.77;;
3953;SDS011;1991;48.682;9.030;2022-12-07T04:22:36;11.80;;;8.63;;
3953;SDS011;1991;48.682;9.030;2022-12-07T04:25:01;8.87;;;7.73;;
3953;SDS011;1991;48.682;9.030;2022-12-07T04:27:27;9.93;;;8.47;;
3953;SDS011;1991;48.682;9.030;2022-12-07T04:29:53;9.27;;;7.77;;
3953;SDS011;1991;48.682;9.030;2022-12-07T04:32:20;10.37;;;7.97;;
3953;SDS011;1991;48.682;9.030;2022-12-07T04:34:45;12.40;;;8.53;;
3953;SDS011;1991;48.682;9.030;2022-12-07T04:37:11;10.87;;;8.40;;
3953;SDS011;1991;48.682;9.030;2022-12-07T04:39:36;11.53;;;7.67;;
3953;SDS011;1991;48.682;9.030;2022-12-07T04:42:02;10.27;;;7.40;;
3953;SDS011;1991;48.682;9.030;2022-12-07T04:44:28;10.47;;;8.13;;
3953;SDS011;1991;48.682;9.030;2022-12-07T04:46:54;9.07;;;8.03;;
3953;SDS011;1991;48.682;9.030;2022-12-07T04:49:20;8.93;;;6.93;;
3953;SDS011;1991;48.682;9.030;2022-12-07T04:51:46;8.40;;;7.10;;
3953;SDS011;1991;48.682;9.030;2022-12-07T04:54:12;8.63;;;7.33;;
3953;SDS011;1991;48.682;9.030;2022-12-07T04:56:40;10.10;;;7.73;;
3953;SDS011;1991;48.682;9.030;2022-12-07T04:59:06;9.07;;;6.80;;
3953;SDS011;1991;48.682;9.030;2022-12-07T05:01:32;8.30;;;6.60;;
3953;SDS011;1991;48.682;9.030;2022-12-07T05:03:58;9.37;;;7.13;;
3953;SDS011;1991;48.682;9.030;2022-12-07T05:06:24;9.77;;;7.17;;
3953;SDS011;1991;48.682;9.030;2022-12-07T05:08:50;9.37;;;7.17;;
3953;SDS011;1991;48.682;9.030;2022-12-07T05:11:16;9.30;;;6.83;;
3953;SDS011;1991;48.682;9.030;2022-12-07T05:14:00;8.03;;;6.37;;
3953;SDS011;1991;48.682;9.030;2022-12-07T05:16:27;8.53;;;7.10;;
3953;SDS011;1991;48.682;9.030;2022-12-07T05:18:53;9.33;;;6.73;;
3953;SDS011;1991;48.682;9.030;2022-12-07T05:21:19;8.33;;;6.20;;
3953;SDS011;1991;48.682;9.030;2022-12-07T05:23:46;10.03;;;6.90;;
3953;SDS011;1991;48.682;9.030;2022-12-07T05:26:11;8.90;;;6.57;;
3953;SDS011;1991;48.682;9.030;2022-12-07T05:28:37;8.80;;;6.30;;
3953;SDS011;1991;48.682;9.030;2022-12-07T05:31:03;8.50;;;6.13;;
3953;SDS011;1991;48.682;9.030;2022-12-07T05:33:28;8.90;;;6.30;;
3953;SDS011;1991;48.682;9.030;2022-12-07T05:35:54;7.20;;;5.73;;
3953;SDS011;1991;48.682;9.030;2022-12-07T05:38:20;8.53;;;6.53;;
3953;SDS011;1991;48.682;9.030;2022-12-07T05:40:45;9.13;;;6.70;;
3953;SDS011;1991;48.682;9.030;2022-12-07T05:43:11;9.13;;;6.47;;
3953;SDS011;1991;48.682;9.030;2022-12-07T05:45:36;9.83;;;7.10;;
3953;SDS011;1991;48.682;9.030;2022-12-07T05:48:02;8.47;;;6.73;;
3953;SDS011;1991;48.682;9.030;2022-12-07T05:50:28;9.37;;;7.07;;
3953;SDS011;1991;48.682;9.030;2022-12-07T05:52:53;8.80;;;6.87;;
3953;SDS011;1991;48.682;9.030;2022-12-07T05:55:19;8.03;;;6.87;;
3953;SDS011;1991;48.682;9.030;2022-12-07T05:57:45;8.77;;;7.30;;
3953;SDS011;1991;48.682;9.030;2022-12-07T06:00:31;11.67;;;7.47;;
3953;SDS011;1991;48.682;9.030;2022-12-07T06:02:57;8.80;;;7.20;;
3953;SDS011;1991;48.682;9.030;2022-12-07T06:05:22;8.67;;;7.00;;
3953;SDS011;1991;48.682;9.030;2022-12-07T06:07:48;8.53;;;6.53;;
3953;SDS011;1991;48.682;9.030;2022-12-07T06:10:14;10.33;;;7.47;;
3953;SDS011;1991;48.682;9.030;2022-12-07T06:12:39;8.53;;;6.33;;
3953;SDS011;1991;48.682;9.030;2022-12-07T06:15:07;9.47;;;7.20;;
3953;SDS011;1991;48.682;9.030;2022-12-07T06:17:34;10.37;;;7.37;;
3953;SDS011;1991;48.682;9.030;2022-12-07T06:20:00;10.20;;;7.97;;
3953;SDS011;1991;48.682;9.030;2022-12-07T06:22:25;12.80;;;8.40;;
3953;SDS011;1991;48.682;9.030;2022-12-07T06:24:51;10.70;;;8.27;;
3953;SDS011;1991;48.682;9.030;2022-12-07T06:27:16;12.07;;;7.90;;
3953;SDS011;1991;48.682;9.030;2022-12-07T06:29:42;11.33;;;7.70;;
3953;SDS011;1991;48.682;9.030;2022-12-07T06:32:08;11.37;;;8.13;;
3953;SDS011;1991;48.682;9.030;2022-12-07T06:34:34;9.80;;;7.33;;
3953;SDS011;1991;48.682;9.030;2022-12-07T06:37:00;10.13;;;7.47;;
3953;SDS011;1991;48.682;9.030;2022-12-07T06:39:26;13.63;;;7.90;;
3953;SDS011;1991;48.682;9.030;2022-12-07T06:41:52;11.00;;;8.13;;
3953;SDS011;1991;48.682;9.030;2022-12-07T06:44:19;12.70;;;7.90;;
3953;SDS011;1991;48.682;9.030;2022-12-07T06:46:44;11.03;;;7.63;;
3953;SDS011;1991;48.682;9.030;2022-12-07T06:49:10;8.73;;;6.60;;
3953;SDS011;1991;48.682;9.030;2022-12-07T06:51:36;11.37;;;7.20;;
3953;SDS011;1991;48.682;9.030;2022-12-07T06:54:05;9.53;;;6.83;;
3953;SDS011;1991;48.682;9.030;2022-12-07T06:56:34;12.20;;;7.13;;
3953;SDS011;1991;48.682;9.030;2022-12-07T06:59:00;12.20;;;8.60;;
3953;SDS011;1991;48.682;9.030;2022-12-07T07:01:26;11.23;;;8.30;;
3953;SDS011;1991;48.682;9.030;2022-12-07T07:03:51;10.87;;;8.17;;
3953;SDS011;1991;48.682;9.030;2022-12-07T07:06:17;12.27;;;8.30;;
3953;SDS011;1991;48.682;9.030;2022-12-07T07:08:42;12.30;;;8.70;;
3953;SDS011;1991;48.682;9.030;2022-12-07T07:11:08;11.80;;;8.27;;
3953;SDS011;1991;48.682;9.030;2022-12-07T07:13:34;10.90;;;8.10;;
3953;SDS011;1991;48.682;9.030;2022-12-07T07:16:00;12.53;;;8.97;;
3953;SDS011;1991;48.682;9.030;2022-12-07T07:18:26;11.37;;;8.70;;
3953;SDS011;1991;48.682;9.030;2022-12-07T07:20:52;10.77;;;8.27;;
3953;SDS011;1991;48.682;9.030;2022-12-07T07:23:18;14.30;;;8.60;;
3953;SDS011;1991;48.682;9.030;2022-12-07T07:25:45;13.73;;;8.47;;
3953;SDS011;1991;48.682;9.030;2022-12-07T07:28:11;12.07;;;8.73;;
3953;SDS011;1991;48.682;9.030;2022-12-07T07:30:37;12.37;;;8.03;;
3953;SDS011;1991;48.682;9.030;2022-12-07T07:33:03;11.73;;;8.30;;
3953;SDS011;1991;48.682;9.030;2022-12-07T07:35:30;13.17;;;7.97;;
3953;SDS011;1991;48.682;9.030;2022-12-07T07:37:57;10.83;;;8.10;;
3953;SDS011;1991;48.682;9.030;2022-12-07T07:40:23;12.10;;;7.93;;
3953;SDS011;1991;48.682;9.030;2022-12-07T07:42:49;11.40;;;6.50;;
3953;SDS011;1991;48.682;9.030;2022-12-07T07:45:16;11.23;;;6.50;;
3953;SDS011;1991;48.682;9.030;2022-12-07T07:47:42;9.50;;;6.83;;
3953;SDS011;1991;48.682;9.030;2022-12-07T07:50:13;9.20;;;6.90;;
3953;SDS011;1991;48.682;9.030;2022-12-07T07:52:39;10.90;;;6.83;;
3953;SDS011;1991;48.682;9.030;2022-12-07T07:55:06;8.23;;;6.00;;
3953;SDS011;1991;48.682;9.030;2022-12-07T07:57:33;8.90;;;6.47;;
3953;SDS011;1991;48.682;9.030;2022-12-07T08:00:03;7.83;;;6.27;;
3953;SDS011;1991;48.682;9.030;2022-12-07T08:02:31;11.23;;;7.20;;
3953;SDS011;1991;48.682;9.030;2022-12-07T08:04:56;8.37;;;5.80;;
3953;SDS011;1991;48.682;9.030;2022-12-07T08:07:22;9.63;;;6.77;;
3953;SDS011;1991;48.682;9.030;2022-12-07T08:09:47;9.57;;;6.03;;
3953;SDS011;1991;48.682;9.030;2022-12-07T08:12:13;7.33;;;5.70;;
3953;SDS011;1991;48.682;9.030;2022-12-07T08:14:38;7.10;;;5.80;;
3953;SDS011;1991;48.682;9.030;2022-12-07T08:17:04;8.00;;;5.90;;
3953;SDS011;1991;48.682;9.030;2022-12-07T08:19:30;13.77;;;6.53;;
3953;SDS011;1991;48.682;9.030;2022-12-07T08:21:55;7.40;;;5.27;;
3953;SDS011;1991;48.682;9.030;2022-12-07T08:24:21;8.27;;;5.20;;
3953;SDS011;1991;48.682;9.030;2022-12-07T08:26:47;7.90;;;6.17;;
3953;SDS011;1991;48.682;9.030;2022-12-07T08:29:14;20.87;;;5.77;;
3953;SDS011;1991;48.682;9.030;2022-12-07T08:31:40;7.53;;;6.00;;
3953;SDS011;1991;48.682;9.030;2022-12-07T08:34:06;6.37;;;5.00;;
3953;SDS011;1991;48.682;9.030;2022-12-07T08:36:31;15.37;;;5.90;;
3953;SDS011;1991;48.682;9.030;2022-12-07T08:38:57;7.27;;;5.30;;
3953;SDS011;1991;48.682;9.030;2022-12-07T08:41:22;6.03;;;5.27;;
3953;SDS011;1991;48.682;9.030;2022-12-07T08:43:48;8.60;;;5.20;;
3953;SDS011;1991;48.682;9.030;2022-12-07T08:48:43;6.70;;;5.33;;
3953;SDS011;1991;48.682;9.030;2022-12-07T08:51:16;8.27;;;4.73;;
3953;SDS011;1991;48.682;9.030;2022-12-07T08:53:42;5.93;;;4.93;;
3953;SDS011;1991;48.682;9.030;2022-12-07T08:56:08;6.50;;;5.03;;
3953;SDS011;1991;48.682;9.030;2022-12-07T08:58:35;7.47;;;5.30;;
3953;SDS011;1991;48.682;9.030;2022-12-07T09:01:02;6.57;;;5.07;;
3953;SDS011;1991;48.682;9.030;2022-12-07T09:03:28;6.23;;;4.90;;
3953;SDS011;1991;48.682;9.030;2022-12-07T09:05:54;5.87;;;4.50;;
3953;SDS011;1991;48.682;9.030;2022-12-07T09:08:20;6.60;;;5.17;;
3953;SDS011;1991;48.682;9.030;2022-12-07T09:10:48;6.57;;;4.67;;
3953;SDS011;1991;48.682;9.030;2022-12-07T09:13:13;6.83;;;4.77;;
3953;SDS011;1991;48.682;9.030;2022-12-07T09:15:39;5.10;;;4.23;;
3953;SDS011;1991;48.682;9.030;2022-12-07T09:18:05;5.53;;;4.37;;
3953;SDS011;1991;48.682;9.030;2022-12-07T09:20:30;7.43;;;5.20;;
3953;SDS011;1991;48.682;9.030;2022-12-07T09:22:56;5.93;;;4.90;;
3953;SDS011;1991;48.682;9.030;2022-12-07T09:25:22;6.47;;;4.90;;
3953;SDS011;1991;48.682;9.030;2022-12-07T09:27:47;5.77;;;4.77;;
3953;SDS011;1991;48.682;9.030;2022-12-07T09:30:13;5.47;;;4.37;;
3953;SDS011;1991;48.682;9.030;2022-12-07T09:32:39;6.00;;;4.77;;
3953;SDS011;1991;48.682;9.030;2022-12-07T09:35:04;5.30;;;4.47;;
3953;SDS011;1991;48.682;9.030;2022-12-07T09:37:30;5.87;;;4.27;;
3953;SDS011;1991;48.682;9.030;2022-12-07T09:40:00;5.27;;;3.77;;
3953;SDS011;1991;48.682;9.030;2022-12-07T09:42:27;5.60;;;3.83;;
3953;SDS011;1991;48.682;9.030;2022-12-07T09:44:57;4.77;;;4.03;;
3953;SDS011;1991;48.682;9.030;2022-12-07T09:47:24;5.77;;;4.70;;
3953;SDS011;1991;48.682;9.030;2022-12-07T09:49:50;6.60;;;4.83;;
3953;SDS011;1991;48.682;9.030;2022-12-07T09:54:52;5.70;;;4.10;;
3953;SDS011;1991;48.682;9.030;2022-12-07T09:57:18;13.63;;;5.17;;
3953;SDS011;1991;48.682;9.030;2022-12-07T09:59:49;36.13;;;7.20;;
3953;SDS011;1991;48.682;9.030;2022-12-07T10:05:06;124.07;;;16.33;;
3953;SDS011;1991;48.682;9.030;2022-12-07T10:07:37;96.23;;;12.70;;
3953;SDS011;1991;48.682;9.030;2022-12-07T10:10:03;5.00;;;4.43;;
3953;SDS011;1991;48.682;9.030;2022-12-07T10:12:42;4.60;;;3.50;;
3953;SDS011;1991;48.682;9.030;2022-12-07T10:15:18;17.63;;;5.13;;
3953;SDS011;1991;48.682;9.030;2022-12-07T10:17:47;8.83;;;4.30;;
3953;SDS011;1991;48.682;9.030;2022-12-07T10:20:15;5.67;;;4.57;;
3953;SDS011;1991;48.682;9.030;2022-12-07T10:25:31;8.90;;;5.03;;
3953;SDS011;1991;48.682;9.030;2022-12-07T10:30:33;8.87;;;6.97;;
3953;SDS011;1991;48.682;9.030;2022-12-07T10:33:34;32.47;;;6.57;;
3953;SDS011;1991;48.682;9.030;2022-12-07T10:36:17;6.77;;;4.73;;
3953;SDS011;1991;48.682;9.030;2022-12-07T10:38:47;5.97;;;4.40;;
3953;SDS011;1991;48.682;9.030;2022-12-07T10:41:15;6.73;;;4.13;;
3953;SDS011;1991;48.682;9.030;2022-12-07T10:43:47;4.33;;;3.60;;
3953;SDS011;1991;48.682;9.030;2022-12-07T10:46:20;4.60;;;3.70;;
3953;SDS011;1991;48.682;9.030;2022-12-07T10:49:22;5.70;;;4.07;;
3953;SDS011;1991;48.682;9.030;2022-12-07T11:22:16;5.17;;;3.77;;
3953;SDS011;1991;48.682;9.030;2022-12-07T11:24:47;4.97;;;3.70;;
3953;SDS011;1991;48.682;9.030;2022-12-07T11:27:37;4.33;;;3.53;;
3953;SDS011;1991;48.682;9.030;2022-12-07T11:30:23;5.43;;;3.77;;
3953;SDS011;1991;48.682;9.030;2022-12-07T11:38:17;4.83;;;4.10;;
3953;SDS011;1991;48.682;9.030;2022-12-07T11:40:51;5.77;;;3.50;;
3953;SDS011;1991;48.682;9.030;2022-12-07T11:43:23;7.23;;;3.93;;
3953;SDS011;1991;48.682;9.030;2022-12-07T11:46:04;6.23;;;3.37;;
3953;SDS011;1991;48.682;9.030;2022-12-07T11:48:40;5.73;;;3.90;;
3953;SDS011;1991;48.682;9.030;2022-12-07T11:51:15;9.53;;;3.40;;
3953;SDS011;1991;48.682;9.030;2022-12-07T11:53:44;5.20;;;4.10;;
3953;SDS011;1991;48.682;9.030;2022-12-07T11:56:19;5.47;;;3.77;;
3953;SDS011;1991;48.682;9.030;2022-12-07T12:06:36;5.30;;;4.03;;
3953;SDS011;1991;48.682;9.030;2022-12-07T12:09:04;6.50;;;3.60;;
3953;SDS011;1991;48.682;9.030;2022-12-07T12:11:41;5.67;;;4.07;;
3953;SDS011;1991;48.682;9.030;2022-12-07T12:20:14;5.83;;;3.80;;
3953;SDS011;1991;48.682;9.030;2022-12-07T12:25:39;4.23;;;3.80;;
3953;SDS011;1991;48.682;9.030;2022-12-07T12:31:06;4.20;;;3.80;;
3953;SDS011;1991;48.682;9.030;2022-12-07T12:33:32;6.27;;;4.27;;
3953;SDS011;1991;48.682;9.030;2022-12-07T12:51:49;4.03;;;3.13;;
3953;SDS011;1991;48.682;9.030;2022-12-07T12:57:06;3.77;;;2.50;;
3953;SDS011;1991;48.682;9.030;2022-12-07T12:59:35;5.03;;;2.87;;
3953;SDS011;1991;48.682;9.030;2022-12-07T13:10:24;3.47;;;2.30;;
3953;SDS011;1991;48.682;9.030;2022-12-07T13:15:41;6.27;;;2.50;;
3953;SDS011;1991;48.682;9.030;2022-12-07T13:28:47;7.30;;;2.87;;
3953;SDS011;1991;48.682;9.030;2022-12-07T13:33:49;8.03;;;2.83;;
3953;SDS011;1991;48.682;9.030;2022-12-07T13:36:48;6.77;;;3.00;;
3953;SDS011;1991;48.682;9.030;2022-12-07T13:39:19;4.10;;;2.63;;
3953;SDS011;1991;48.682;9.030;2022-12-07T13:41:54;4.17;;;2.67;;
3953;SDS011;1991;48.682;9.030;2022-12-07T13:44:22;3.33;;;2.30;;
3953;SDS011;1991;48.682;9.030;2022-12-07T13:51:48;5.80;;;3.60;;
3953;SDS011;1991;48.682;9.030;2022-12-07T13:54:13;5.10;;;3.23;;
3953;SDS011;1991;48.682;9.030;2022-12-07T13:56:40;8.27;;;3.20;;
3953;SDS011;1991;48.682;9.030;2022-12-07T13:59:13;7.13;;;3.60;;
3953;SDS011;1991;48.682;9.030;2022-12-07T14:01:48;4.03;;;2.97;;
3953;SDS011;1991;48.682;9.030;2022-12-07T14:06:52;3.17;;;2.60;;
3953;SDS011;1991;48.682;9.030;2022-12-07T14:09:19;5.50;;;3.00;;
3953;SDS011;1991;48.682;9.030;2022-12-07T14:11:49;6.13;;;2.77;;
3953;SDS011;1991;48.682;9.030;2022-12-07T14:14:18;4.17;;;3.17;;
3953;SDS011;1991;48.682;9.030;2022-12-07T14:17:09;6.30;;;3.30;;
3953;SDS011;1991;48.682;9.030;2022-12-07T14:19:41;6.07;;;3.60;;
3953;SDS011;1991;48.682;9.030;2022-12-07T14:22:18;4.07;;;3.27;;
3953;SDS011;1991;48.682;9.030;2022-12-07T14:24:46;12.17;;;4.03;;
3953;SDS011;1991;48.682;9.030;2022-12-07T14:27:19;4.37;;;3.33;;
3953;SDS011;1991;48.682;9.030;2022-12-07T14:29:46;5.17;;;3.50;;
3953;SDS011;1991;48.682;9.030;2022-12-07T14:32:18;4.17;;;3.20;;
3953;SDS011;1991;48.682;9.030;2022-12-07T14:37:21;4.53;;;3.17;;
3953;SDS011;1991;48.682;9.030;2022-12-07T14:39:47;6.50;;;3.30;;
3953;SDS011;1991;48.682;9.030;2022-12-07T14:42:13;7.23;;;3.80;;
3953;SDS011;1991;48.682;9.030;2022-12-07T14:44:38;5.47;;;3.30;;
3953;SDS011;1991;48.682;9.030;2022-12-07T14:47:04;4.80;;;3.73;;
3953;SDS011;1991;48.682;9.030;2022-12-07T14:49:29;8.13;;;3.70;;
3953;SDS011;1991;48.682;9.030;2022-12-07T14:51:55;3.33;;;3.03;;
3953;SDS011;1991;48.682;9.030;2022-12-07T14:54:21;4.37;;;3.13;;
3953;SDS011;1991;48.682;9.030;2022-12-07T14:56:52;4.23;;;3.10;;
3953;SDS011;1991;48.682;9.030;2022-12-07T14:59:18;4.93;;;4.43;;
3953;SDS011;1991;48.682;9.030;2022-12-07T15:01:44;4.00;;;3.10;;
3953;SDS011;1991;48.682;9.030;2022-12-07T15:04:10;4.57;;;3.00;;
3953;SDS011;1991;48.682;9.030;2022-12-07T15:06:35;5.50;;;3.50;;
3953;SDS011;1991;48.682;9.030;2022-12-07T15:09:01;5.87;;;3.53;;
3953;SDS011;1991;48.682;9.030;2022-12-07T15:11:27;4.97;;;3.03;;
3953;SDS011;1991;48.682;9.030;2022-12-07T15:13:53;5.03;;;3.73;;
3953;SDS011;1991;48.682;9.030;2022-12-07T15:16:34;7.37;;;3.70;;
3953;SDS011;1991;48.682;9.030;2022-12-07T15:19:00;5.00;;;3.97;;
3953;SDS011;1991;48.682;9.030;2022-12-07T15:21:26;5.27;;;3.90;;
3953;SDS011;1991;48.682;9.030;2022-12-07T15:23:52;7.10;;;3.93;;
3953;SDS011;1991;48.682;9.030;2022-12-07T15:26:18;6.47;;;4.67;;
3953;SDS011;1991;48.682;9.030;2022-12-07T15:28:44;5.33;;;4.10;;
3953;SDS011;1991;48.682;9.030;2022-12-07T15:31:13;5.37;;;3.20;;
3953;SDS011;1991;48.682;9.030;2022-12-07T15:33:40;5.37;;;4.23;;
3953;SDS011;1991;48.682;9.030;2022-12-07T15:36:07;8.10;;;5.00;;
3953;SDS011;1991;48.682;9.030;2022-12-07T15:38:32;7.40;;;5.37;;
3953;SDS011;1991;48.682;9.030;2022-12-07T15:40:58;9.60;;;5.90;;
3953;SDS011;1991;48.682;9.030;2022-12-07T15:43:24;6.70;;;5.30;;
3953;SDS011;1991;48.682;9.030;2022-12-07T15:46:07;8.73;;;6.37;;
3953;SDS011;1991;48.682;9.030;2022-12-07T15:48:33;7.47;;;5.50;;
3953;SDS011;1991;48.682;9.030;2022-12-07T15:51:06;6.97;;;5.43;;
3953;SDS011;1991;48.682;9.030;2022-12-07T15:53:32;7.70;;;5.20;;
3953;SDS011;1991;48.682;9.030;2022-12-07T15:55:58;7.03;;;5.60;;
3953;SDS011;1991;48.682;9.030;2022-12-07T15:58:23;7.37;;;6.00;;
3953;SDS011;1991;48.682;9.030;2022-12-07T16:00:49;11.17;;;5.97;;
3953;SDS011;1991;48.682;9.030;2022-12-07T16:03:15;9.00;;;6.07;;
3953;SDS011;1991;48.682;9.030;2022-12-07T16:05:40;9.57;;;6.63;;
3953;SDS011;1991;48.682;9.030;2022-12-07T16:08:06;11.20;;;7.00;;
3953;SDS011;1991;48.682;9.030;2022-12-07T16:10:31;10.77;;;7.30;;
3953;SDS011;1991;48.682;9.030;2022-12-07T16:12:57;9.80;;;6.73;;
3953;SDS011;1991;48.682;9.030;2022-12-07T16:15:23;12.80;;;7.13;;
3953;SDS011;1991;48.682;9.030;2022-12-07T16:17:50;9.10;;;6.90;;
3953;SDS011;1991;48.682;9.030;2022-12-07T16:20:16;10.20;;;7.07;;
3953;SDS011;1991;48.682;9.030;2022-12-07T16:22:42;11.07;;;7.13;;
3953;SDS011;1991;48.682;9.030;2022-12-07T16:25:07;9.83;;;6.60;;
3953;SDS011;1991;48.682;9.030;2022-12-07T16:27:33;9.33;;;6.40;;
3953;SDS011;1991;48.682;9.030;2022-12-07T16:29:59;10.63;;;7.57;;
3953;SDS011;1991;48.682;9.030;2022-12-07T16:32:25;10.77;;;7.03;;
3953;SDS011;1991;48.682;9.030;2022-12-07T16:34:50;11.53;;;7.50;;
3953;SDS011;1991;48.682;9.030;2022-12-07T16:37:16;11.93;;;7.60;;
3953;SDS011;1991;48.682;9.030;2022-12-07T16:39:42;9.80;;;6.67;;
3953;SDS011;1991;48.682;9.030;2022-12-07T16:42:07;8.80;;;7.30;;
3953;SDS011;1991;48.682;9.030;2022-12-07T16:44:33;12.87;;;7.43;;
3953;SDS011;1991;48.682;9.030;2022-12-07T16:46:59;8.87;;;6.77;;
3953;SDS011;1991;48.682;9.030;2022-12-07T16:49:25;10.27;;;6.23;;
3953;SDS011;1991;48.682;9.030;2022-12-07T16:51:51;12.83;;;8.10;;
3953;SDS011;1991;48.682;9.030;2022-12-07T16:54:16;10.50;;;7.17;;
3953;SDS011;1991;48.682;9.030;2022-12-07T16:56:42;11.67;;;7.87;;
3953;SDS011;1991;48.682;9.030;2022-12-07T16:59:08;10.87;;;8.13;;
3953;SDS011;1991;48.682;9.030;2022-12-07T17:01:33;11.50;;;7.83;;
3953;SDS011;1991;48.682;9.030;2022-12-07T17:04:00;12.63;;;7.20;;
3953;SDS011;1991;48.682;9.030;2022-12-07T17:06:27;14.27;;;7.97;;
3953;SDS011;1991;48.682;9.030;2022-12-07T17:08:54;11.27;;;7.90;;
3953;SDS011;1991;48.682;9.030;2022-12-07T17:11:28;10.87;;;7.37;;
3953;SDS011;1991;48.682;9.030;2022-12-07T17:13:57;11.80;;;7.27;;
3953;SDS011;1991;48.682;9.030;2022-12-07T17:16:41;8.90;;;6.00;;
3953;SDS011;1991;48.682;9.030;2022-12-07T17:19:08;8.67;;;6.10;;
3953;SDS011;1991;48.682;9.030;2022-12-07T17:21:36;10.37;;;7.03;;
3953;SDS011;1991;48.682;9.030;2022-12-07T17:24:03;13.33;;;8.63;;
3953;SDS011;1991;48.682;9.030;2022-12-07T17:26:30;8.40;;;6.37;;
3953;SDS011;1991;48.682;9.030;2022-12-07T17:28:56;9.63;;;6.73;;
3953;SDS011;1991;48.682;9.030;2022-12-07T17:31:23;8.23;;;6.27;;
3953;SDS011;1991;48.682;9.030;2022-12-07T17:33:49;8.63;;;5.73;;
3953;SDS011;1991;48.682;9.030;2022-12-07T17:36:19;10.97;;;6.70;;
3953;SDS011;1991;48.682;9.030;2022-12-07T17:38:47;11.43;;;8.07;;
3953;SDS011;1991;48.682;9.030;2022-12-07T17:41:15;13.10;;;8.40;;
3953;SDS011;1991;48.682;9.030;2022-12-07T17:44:04;14.10;;;9.17;;
3953;SDS011;1991;48.682;9.030;2022-12-07T17:46:32;13.43;;;9.80;;
3953;SDS011;1991;48.682;9.030;2022-12-07T17:48:58;10.60;;;7.40;;
3953;SDS011;1991;48.682;9.030;2022-12-07T17:51:24;10.37;;;7.57;;
3953;SDS011;1991;48.682;9.030;2022-12-07T17:54:09;11.53;;;7.87;;